Glenville, WV (26351)

5:18 AM EDT on August 30, 2016 (GMT -0400)
Brooklyn Point | | Change Station

Elev 732 ft 38.94 °N, 80.84 °W | Updated 32 seconds ago

Mist
Mist
68.9 °F
Feels Like 68.9 °F
N
0.0
Wind Variable Wind from NNW

Today
High -- | Low -- °F
--% Chance of Precip.
Yesterday
High -- | Low -- °F
Precip. -- in
Pressure 30.18 in
Visibility 0.8 miles
Clouds
Dew Point 68 °F
Humidity 98%
Rainfall 0.00 in
Snow Depth Not available.
6:50 AM 7:55 PM
Waning Crescent, 4% visible
SPECI KCKB 300901Z 03003KT 3/4SM BR VV002 17/16 A3018 RMK AO2 T01670161 RVRNO
Pressure 30.18 in
Visibility 0.8 miles
Clouds
Dew Point 68 °F
Humidity 98%
Rainfall 0.00 in
Snow Depth Not available.
6:50 AM 7:55 PM
Waning Crescent, 4% visible
SPECI KCKB 300901Z 03003KT 3/4SM BR VV002 17/16 A3018 RMK AO2 T01670161 RVRNO

10-Day Weather Forecast

Almanac

Astronomy

Aug. 30, 2016 Rise Set
Actual Time
Civil Twilight
Nautical Twilight
Astronomical Twilight
Moon
Length of Visible Light
Length of Day
Tomorrow will be .
, % of the Moon is Illuminated

Today's Extremes

State Highs State Lows

Community

WunderPhotos

Upload Photos

1,935,795 photos uploaded!

WunderBlog® & News

Nearby

Air Quality

  Air Quality AQ Index Pollutant
Not available.

Snow Depth

Station Depth Elevation

Earthquake Activity

City Distance Mag. Time & Date
Minimum magnitude displayed is 2.5.

Coastal Water Temperatures

Place Temperature

Stations

Nearby Weather Stations

Station Location Temp. Windchill Dew Point Humidity Wind Precip. Elev Updated Type
                   

Watches & Warnings

There are currently no watches in effect.